sensor_id;sensor_type;location;lat;lon;timestamp;temperature;humidity
1826;DHT22;912;48.130;11.348;2022-07-29T00:00:07;17.70;1.40
1826;DHT22;912;48.130;11.348;2022-07-29T00:02:49;17.70;1.40
1826;DHT22;912;48.130;11.348;2022-07-29T00:05:30;17.70;1.40
1826;DHT22;912;48.130;11.348;2022-07-29T00:08:13;17.70;1.40
1826;DHT22;912;48.130;11.348;2022-07-29T00:10:55;17.70;1.40
1826;DHT22;912;48.130;11.348;2022-07-29T00:13:40;17.70;1.40
1826;DHT22;912;48.130;11.348;2022-07-29T00:16:21;17.60;1.40
1826;DHT22;912;48.130;11.348;2022-07-29T00:19:03;17.70;1.40
1826;DHT22;912;48.130;11.348;2022-07-29T00:21:45;17.70;1.40
1826;DHT22;912;48.130;11.348;2022-07-29T00:24:27;17.80;1.40
1826;DHT22;912;48.130;11.348;2022-07-29T00:27:09;17.70;1.40
1826;DHT22;912;48.130;11.348;2022-07-29T00:29:50;17.60;1.40
1826;DHT22;912;48.130;11.348;2022-07-29T00:32:32;17.60;1.40
1826;DHT22;912;48.130;11.348;2022-07-29T00:35:50;17.30;1.40
1826;DHT22;912;48.130;11.348;2022-07-29T00:38:31;17.30;1.40
1826;DHT22;912;48.130;11.348;2022-07-29T00:41:13;17.30;1.40
1826;DHT22;912;48.130;11.348;2022-07-29T00:43:55;17.30;1.40
1826;DHT22;912;48.130;11.348;2022-07-29T00:46:37;17.20;1.40
1826;DHT22;912;48.130;11.348;2022-07-29T00:49:18;17.30;1.40
1826;DHT22;912;48.130;11.348;2022-07-29T00:52:01;17.30;1.40
1826;DHT22;912;48.130;11.348;2022-07-29T00:54:43;17.40;1.40
1826;DHT22;912;48.130;11.348;2022-07-29T00:57:25;17.40;1.40
1826;DHT22;912;48.130;11.348;2022-07-29T01:00:08;17.40;1.40
1826;DHT22;912;48.130;11.348;2022-07-29T01:02:54;17.30;1.40
1826;DHT22;912;48.130;11.348;2022-07-29T01:08:10;17.40;1.40
1826;DHT22;912;48.130;11.348;2022-07-29T01:10:51;17.50;1.40
1826;DHT22;912;48.130;11.348;2022-07-29T01:13:33;17.60;1.40
1826;DHT22;912;48.130;11.348;2022-07-29T01:16:21;17.80;1.40
1826;DHT22;912;48.130;11.348;2022-07-29T01:19:07;17.90;1.40
1826;DHT22;912;48.130;11.348;2022-07-29T01:21:50;17.90;1.40
1826;DHT22;912;48.130;11.348;2022-07-29T01:28:03;17.90;1.40
1826;DHT22;912;48.130;11.348;2022-07-29T01:30:48;17.80;1.40
1826;DHT22;912;48.130;11.348;2022-07-29T01:35:50;17.70;1.40
1826;DHT22;912;48.130;11.348;2022-07-29T01:38:31;17.70;1.40
1826;DHT22;912;48.130;11.348;2022-07-29T01:41:14;17.60;1.40
1826;DHT22;912;48.130;11.348;2022-07-29T01:43:57;17.60;1.40
1826;DHT22;912;48.130;11.348;2022-07-29T01:46:40;17.50;1.40
1826;DHT22;912;48.130;11.348;2022-07-29T01:49:24;17.50;1.40
1826;DHT22;912;48.130;11.348;2022-07-29T01:52:19;17.40;1.40
1826;DHT22;912;48.130;11.348;2022-07-29T01:54:57;17.40;1.40
1826;DHT22;912;48.130;11.348;2022-07-29T01:57:38;17.50;1.40
1826;DHT22;912;48.130;11.348;2022-07-29T02:00:20;17.40;1.40
1826;DHT22;912;48.130;11.348;2022-07-29T02:03:02;17.30;1.40
1826;DHT22;912;48.130;11.348;2022-07-29T02:05:43;17.30;1.40
1826;DHT22;912;48.130;11.348;2022-07-29T02:08:24;17.30;1.40
1826;DHT22;912;48.130;11.348;2022-07-29T02:11:06;17.20;1.40
1826;DHT22;912;48.130;11.348;2022-07-29T02:13:48;17.20;1.40
1826;DHT22;912;48.130;11.348;2022-07-29T02:19:04;17.00;1.40
1826;DHT22;912;48.130;11.348;2022-07-29T02:21:49;16.80;1.40
1826;DHT22;912;48.130;11.348;2022-07-29T02:24:30;16.80;1.40
1826;DHT22;912;48.130;11.348;2022-07-29T02:27:12;16.70;1.40
1826;DHT22;912;48.130;11.348;2022-07-29T02:29:54;16.70;1.40
1826;DHT22;912;48.130;11.348;2022-07-29T02:32:36;16.60;1.40
1826;DHT22;912;48.130;11.348;2022-07-29T02:35:50;16.70;1.40
1826;DHT22;912;48.130;11.348;2022-07-29T02:38:32;16.40;1.40
1826;DHT22;912;48.130;11.348;2022-07-29T02:41:22;16.30;1.40
1826;DHT22;912;48.130;11.348;2022-07-29T02:44:05;16.10;1.40
1826;DHT22;912;48.130;11.348;2022-07-29T02:46:48;16.00;1.40
1826;DHT22;912;48.130;11.348;2022-07-29T02:49:34;15.90;1.40
1826;DHT22;912;48.130;11.348;2022-07-29T02:52:18;16.00;1.40
1826;DHT22;912;48.130;11.348;2022-07-29T02:58:27;15.60;1.40
1826;DHT22;912;48.130;11.348;2022-07-29T03:01:11;15.40;1.40
1826;DHT22;912;48.130;11.348;2022-07-29T03:06:26;15.30;1.40
1826;DHT22;912;48.130;11.348;2022-07-29T03:09:08;15.30;1.40
1826;DHT22;912;48.130;11.348;2022-07-29T03:11:49;15.30;1.40
1826;DHT22;912;48.130;11.348;2022-07-29T03:14:31;15.40;1.40
1826;DHT22;912;48.130;11.348;2022-07-29T03:17:13;15.70;1.40
1826;DHT22;912;48.130;11.348;2022-07-29T03:19:55;15.70;1.40
1826;DHT22;912;48.130;11.348;2022-07-29T03:22:39;15.80;1.40
1826;DHT22;912;48.130;11.348;2022-07-29T03:25:23;15.90;1.40
1826;DHT22;912;48.130;11.348;2022-07-29T03:28:05;15.90;1.40
1826;DHT22;912;48.130;11.348;2022-07-29T03:30:46;15.80;1.40
1826;DHT22;912;48.130;11.348;2022-07-29T03:35:50;15.40;1.40
1826;DHT22;912;48.130;11.348;2022-07-29T03:38:33;15.10;1.40
1826;DHT22;912;48.130;11.348;2022-07-29T03:41:13;15.00;1.40
1826;DHT22;912;48.130;11.348;2022-07-29T03:43:55;15.00;1.40
1826;DHT22;912;48.130;11.348;2022-07-29T03:46:37;15.00;1.40
1826;DHT22;912;48.130;11.348;2022-07-29T03:49:18;15.10;1.40
1826;DHT22;912;48.130;11.348;2022-07-29T03:52:00;15.20;1.40
1826;DHT22;912;48.130;11.348;2022-07-29T03:56:23;15.40;1.40
1826;DHT22;912;48.130;11.348;2022-07-29T03:59:04;15.50;1.40
1826;DHT22;912;48.130;11.348;2022-07-29T04:01:46;15.60;1.40
1826;DHT22;912;48.130;11.348;2022-07-29T04:04:28;15.60;1.40
1826;DHT22;912;48.130;11.348;2022-07-29T04:07:12;15.80;1.40
1826;DHT22;912;48.130;11.348;2022-07-29T04:09:53;15.90;1.40
1826;DHT22;912;48.130;11.348;2022-07-29T04:12:35;16.00;1.40
1826;DHT22;912;48.130;11.348;2022-07-29T04:15:17;15.80;1.40
1826;DHT22;912;48.130;11.348;2022-07-29T04:18:02;15.80;1.40
1826;DHT22;912;48.130;11.348;2022-07-29T04:20:44;15.80;1.40
1826;DHT22;912;48.130;11.348;2022-07-29T04:26:00;16.00;1.40
1826;DHT22;912;48.130;11.348;2022-07-29T04:28:42;16.00;1.40
1826;DHT22;912;48.130;11.348;2022-07-29T04:31:23;16.00;1.40
1826;DHT22;912;48.130;11.348;2022-07-29T04:35:55;16.00;1.40
1826;DHT22;912;48.130;11.348;2022-07-29T04:38:37;16.00;1.40
1826;DHT22;912;48.130;11.348;2022-07-29T04:41:19;16.00;1.40
1826;DHT22;912;48.130;11.348;2022-07-29T04:44:02;16.00;1.40
1826;DHT22;912;48.130;11.348;2022-07-29T04:46:43;16.10;1.40
1826;DHT22;912;48.130;11.348;2022-07-29T04:49:25;16.20;1.40
1826;DHT22;912;48.130;11.348;2022-07-29T04:52:07;16.00;1.40
1826;DHT22;912;48.130;11.348;2022-07-29T04:54:49;16.00;1.40
1826;DHT22;912;48.130;11.348;2022-07-29T04:57:30;15.90;1.40
1826;DHT22;912;48.130;11.348;2022-07-29T05:00:12;15.90;1.40
1826;DHT22;912;48.130;11.348;2022-07-29T05:02:54;15.90;1.40
1826;DHT22;912;48.130;11.348;2022-07-29T05:05:39;15.90;1.40
1826;DHT22;912;48.130;11.348;2022-07-29T05:08:21;15.90;1.40
1826;DHT22;912;48.130;11.348;2022-07-29T05:11:03;16.00;1.40
1826;DHT22;912;48.130;11.348;2022-07-29T05:13:44;16.20;1.40
1826;DHT22;912;48.130;11.348;2022-07-29T05:16:26;16.40;1.40
1826;DHT22;912;48.130;11.348;2022-07-29T05:19:11;16.40;1.40
1826;DHT22;912;48.130;11.348;2022-07-29T05:21:53;16.50;1.40
1826;DHT22;912;48.130;11.348;2022-07-29T05:24:34;16.50;1.40
1826;DHT22;912;48.130;11.348;2022-07-29T05:27:16;16.50;1.40
1826;DHT22;912;48.130;11.348;2022-07-29T05:29:58;16.60;1.40
1826;DHT22;912;48.130;11.348;2022-07-29T05:32:46;16.70;1.40
1826;DHT22;912;48.130;11.348;2022-07-29T05:35:49;16.90;1.40
1826;DHT22;912;48.130;11.348;2022-07-29T05:38:31;17.10;1.40
1826;DHT22;912;48.130;11.348;2022-07-29T05:41:13;17.00;1.40
1826;DHT22;912;48.130;11.348;2022-07-29T05:46:29;17.30;1.40
1826;DHT22;912;48.130;11.348;2022-07-29T05:49:10;17.40;1.40
1826;DHT22;912;48.130;11.348;2022-07-29T05:51:52;17.50;1.40
1826;DHT22;912;48.130;11.348;2022-07-29T05:54:38;17.60;1.40
1826;DHT22;912;48.130;11.348;2022-07-29T05:57:25;17.70;1.40
1826;DHT22;912;48.130;11.348;2022-07-29T06:00:08;17.80;1.40
1826;DHT22;912;48.130;11.348;2022-07-29T06:02:56;17.80;1.40
1826;DHT22;912;48.130;11.348;2022-07-29T06:05:40;17.40;1.40
1826;DHT22;912;48.130;11.348;2022-07-29T06:08:22;16.50;1.40
1826;DHT22;912;48.130;11.348;2022-07-29T06:11:06;16.30;1.40
1826;DHT22;912;48.130;11.348;2022-07-29T06:13:50;16.20;1.40
1826;DHT22;912;48.130;11.348;2022-07-29T06:18:56;16.00;1.40
1826;DHT22;912;48.130;11.348;2022-07-29T06:21:43;16.20;1.40
1826;DHT22;912;48.130;11.348;2022-07-29T06:24:31;16.20;1.40
1826;DHT22;912;48.130;11.348;2022-07-29T06:27:18;15.90;1.40
1826;DHT22;912;48.130;11.348;2022-07-29T06:30:03;15.90;1.40
1826;DHT22;912;48.130;11.348;2022-07-29T06:32:50;16.00;1.40
1826;DHT22;912;48.130;11.348;2022-07-29T06:35:52;16.20;1.40
1826;DHT22;912;48.130;11.348;2022-07-29T06:38:39;16.30;1.40
1826;DHT22;912;48.130;11.348;2022-07-29T06:44:02;16.50;1.40
1826;DHT22;912;48.130;11.348;2022-07-29T06:46:43;16.60;1.40
1826;DHT22;912;48.130;11.348;2022-07-29T06:49:31;17.30;1.40
1826;DHT22;912;48.130;11.348;2022-07-29T06:52:19;17.80;1.40
1826;DHT22;912;48.130;11.348;2022-07-29T06:55:01;18.00;1.40
1826;DHT22;912;48.130;11.348;2022-07-29T06:57:42;18.20;1.40
1826;DHT22;912;48.130;11.348;2022-07-29T07:00:24;18.20;1.40
1826;DHT22;912;48.130;11.348;2022-07-29T07:03:06;18.30;1.40
1826;DHT22;912;48.130;11.348;2022-07-29T07:05:48;18.30;1.40
1826;DHT22;912;48.130;11.348;2022-07-29T07:08:30;18.40;1.40
1826;DHT22;912;48.130;11.348;2022-07-29T07:11:12;18.50;1.40
1826;DHT22;912;48.130;11.348;2022-07-29T07:13:53;18.70;1.40
1826;DHT22;912;48.130;11.348;2022-07-29T07:16:35;18.70;1.40
1826;DHT22;912;48.130;11.348;2022-07-29T07:19:20;18.90;1.40
1826;DHT22;912;48.130;11.348;2022-07-29T07:22:05;18.90;1.40
1826;DHT22;912;48.130;11.348;2022-07-29T07:24:56;19.00;1.40
1826;DHT22;912;48.130;11.348;2022-07-29T07:27:38;19.30;1.40
1826;DHT22;912;48.130;11.348;2022-07-29T07:30:24;19.40;1.40
1826;DHT22;912;48.130;11.348;2022-07-29T07:35:56;19.60;1.40
1826;DHT22;912;48.130;11.348;2022-07-29T07:38:40;19.50;1.40
1826;DHT22;912;48.130;11.348;2022-07-29T07:41:22;20.00;1.40
1826;DHT22;912;48.130;11.348;2022-07-29T07:44:10;19.90;1.40
1826;DHT22;912;48.130;11.348;2022-07-29T07:46:57;20.00;1.40
1826;DHT22;912;48.130;11.348;2022-07-29T07:49:39;20.10;1.40
1826;DHT22;912;48.130;11.348;2022-07-29T07:52:23;20.10;1.40
1826;DHT22;912;48.130;11.348;2022-07-29T07:55:11;20.50;1.40
1826;DHT22;912;48.130;11.348;2022-07-29T07:57:54;20.90;1.40
1826;DHT22;912;48.130;11.348;2022-07-29T08:03:10;20.80;1.40
1826;DHT22;912;48.130;11.348;2022-07-29T08:05:52;21.00;1.40
1826;DHT22;912;48.130;11.348;2022-07-29T08:08:34;21.00;1.40
1826;DHT22;912;48.130;11.348;2022-07-29T08:13:12;21.40;1.40
1826;DHT22;912;48.130;11.348;2022-07-29T08:15:53;21.90;1.40
1826;DHT22;912;48.130;11.348;2022-07-29T08:18:39;22.20;1.40
1826;DHT22;912;48.130;11.348;2022-07-29T08:21:25;22.60;1.40
1826;DHT22;912;48.130;11.348;2022-07-29T08:24:07;22.40;1.40
1826;DHT22;912;48.130;11.348;2022-07-29T08:29:31;23.20;1.40
1826;DHT22;912;48.130;11.348;2022-07-29T08:32:13;23.00;1.40
1826;DHT22;912;48.130;11.348;2022-07-29T08:35:50;22.70;1.40
1826;DHT22;912;48.130;11.348;2022-07-29T08:38:32;22.40;1.40
1826;DHT22;912;48.130;11.348;2022-07-29T08:41:15;22.50;1.40
1826;DHT22;912;48.130;11.348;2022-07-29T08:43:57;22.80;1.40
1826;DHT22;912;48.130;11.348;2022-07-29T08:46:47;22.70;1.40
1826;DHT22;912;48.130;11.348;2022-07-29T08:49:29;23.00;1.40
1826;DHT22;912;48.130;11.348;2022-07-29T08:52:11;22.80;1.40
1826;DHT22;912;48.130;11.348;2022-07-29T08:54:53;22.80;1.40
1826;DHT22;912;48.130;11.348;2022-07-29T08:57:34;22.90;1.40
1826;DHT22;912;48.130;11.348;2022-07-29T09:00:16;23.10;1.40
1826;DHT22;912;48.130;11.348;2022-07-29T09:02:57;23.60;1.40
1826;DHT22;912;48.130;11.348;2022-07-29T09:05:41;23.90;1.40
1826;DHT22;912;48.130;11.348;2022-07-29T09:08:21;24.50;1.40
1826;DHT22;912;48.130;11.348;2022-07-29T09:11:06;24.30;1.40
1826;DHT22;912;48.130;11.348;2022-07-29T09:13:48;24.70;1.40
1826;DHT22;912;48.130;11.348;2022-07-29T09:16:51;25.40;1.40
1826;DHT22;912;48.130;11.348;2022-07-29T09:19:37;24.90;1.40
1826;DHT22;912;48.130;11.348;2022-07-29T09:22:28;24.40;1.40
1826;DHT22;912;48.130;11.348;2022-07-29T09:25:00;24.00;1.40
1826;DHT22;912;48.130;11.348;2022-07-29T09:27:42;23.70;1.40
1826;DHT22;912;48.130;11.348;2022-07-29T09:30:24;23.70;1.40
1826;DHT22;912;48.130;11.348;2022-07-29T09:36:06;24.30;1.40
1826;DHT22;912;48.130;11.348;2022-07-29T09:38:56;24.60;1.40
1826;DHT22;912;48.130;11.348;2022-07-29T09:44:04;23.60;1.40
1826;DHT22;912;48.130;11.348;2022-07-29T09:46:55;23.40;1.40
1826;DHT22;912;48.130;11.348;2022-07-29T09:49:53;23.60;1.40
1826;DHT22;912;48.130;11.348;2022-07-29T09:52:43;23.80;1.40
1826;DHT22;912;48.130;11.348;2022-07-29T09:55:17;25.90;1.40
1826;DHT22;912;48.130;11.348;2022-07-29T10:00:56;29.20;1.40
1826;DHT22;912;48.130;11.348;2022-07-29T10:03:52;28.60;1.40
1826;DHT22;912;48.130;11.348;2022-07-29T10:06:34;26.60;1.40
1826;DHT22;912;48.130;11.348;2022-07-29T10:09:15;27.20;1.40
1826;DHT22;912;48.130;11.348;2022-07-29T10:12:03;28.50;1.40
1826;DHT22;912;48.130;11.348;2022-07-29T10:14:47;29.60;1.40
1826;DHT22;912;48.130;11.348;2022-07-29T10:17:28;28.10;1.40
1826;DHT22;912;48.130;11.348;2022-07-29T10:20:10;26.90;1.40
1826;DHT22;912;48.130;11.348;2022-07-29T10:22:58;29.30;1.40
1826;DHT22;912;48.130;11.348;2022-07-29T10:25:45;29.40;1.40
1826;DHT22;912;48.130;11.348;2022-07-29T10:28:27;28.90;1.40
1826;DHT22;912;48.130;11.348;2022-07-29T10:31:11;26.70;1.40
1826;DHT22;912;48.130;11.348;2022-07-29T10:36:02;26.40;1.40
1826;DHT22;912;48.130;11.348;2022-07-29T10:38:43;26.70;1.40
1826;DHT22;912;48.130;11.348;2022-07-29T10:44:32;28.10;1.40
1826;DHT22;912;48.130;11.348;2022-07-29T10:47:23;29.00;1.40
1826;DHT22;912;48.130;11.348;2022-07-29T10:52:54;30.60;1.40
1826;DHT22;912;48.130;11.348;2022-07-29T10:55:49;31.00;1.40
1826;DHT22;912;48.130;11.348;2022-07-29T10:58:42;33.50;99.90
1826;DHT22;912;48.130;11.348;2022-07-29T11:01:29;32.10;99.90
1826;DHT22;912;48.130;11.348;2022-07-29T11:04:10;30.40;1.00
1826;DHT22;912;48.130;11.348;2022-07-29T11:13:04;29.00;99.90
1826;DHT22;912;48.130;11.348;2022-07-29T11:15:52;29.90;99.90
1826;DHT22;912;48.130;11.348;2022-07-29T11:18:33;30.40;99.90
1826;DHT22;912;48.130;11.348;2022-07-29T11:24:21;28.20;99.90
1826;DHT22;912;48.130;11.348;2022-07-29T11:27:12;27.80;99.90
1826;DHT22;912;48.130;11.348;2022-07-29T11:29:55;27.50;99.90
1826;DHT22;912;48.130;11.348;2022-07-29T11:32:42;27.60;99.90
1826;DHT22;912;48.130;11.348;2022-07-29T11:36:15;28.10;99.90
1826;DHT22;912;48.130;11.348;2022-07-29T11:45:21;26.90;1.00
1826;DHT22;912;48.130;11.348;2022-07-29T11:48:02;27.10;99.90
1826;DHT22;912;48.130;11.348;2022-07-29T11:50:44;27.00;99.90
1826;DHT22;912;48.130;11.348;2022-07-29T11:53:28;27.30;99.90
1826;DHT22;912;48.130;11.348;2022-07-29T11:59:04;27.10;99.90
1826;DHT22;912;48.130;11.348;2022-07-29T12:01:53;27.20;99.90
1826;DHT22;912;48.130;11.348;2022-07-29T12:04:47;26.70;99.90
1826;DHT22;912;48.130;11.348;2022-07-29T12:07:31;26.70;99.90
1826;DHT22;912;48.130;11.348;2022-07-29T12:10:11;26.90;1.00
1826;DHT22;912;48.130;11.348;2022-07-29T12:12:53;27.10;1.00
1826;DHT22;912;48.130;11.348;2022-07-29T12:18:11;26.70;99.90
1826;DHT22;912;48.130;11.348;2022-07-29T12:20:57;26.90;99.90
1826;DHT22;912;48.130;11.348;2022-07-29T12:23:38;27.10;99.90
1826;DHT22;912;48.130;11.348;2022-07-29T12:26:20;27.40;99.90
1826;DHT22;912;48.130;11.348;2022-07-29T12:29:01;26.80;99.90
1826;DHT22;912;48.130;11.348;2022-07-29T12:31:43;26.40;99.90
1826;DHT22;912;48.130;11.348;2022-07-29T12:35:52;25.70;99.90
1826;DHT22;912;48.130;11.348;2022-07-29T12:38:33;25.40;99.90
1826;DHT22;912;48.130;11.348;2022-07-29T12:41:14;25.30;99.90
1826;DHT22;912;48.130;11.348;2022-07-29T12:43:56;25.10;99.90
1826;DHT22;912;48.130;11.348;2022-07-29T12:46:38;25.10;99.90
1826;DHT22;912;48.130;11.348;2022-07-29T12:49:21;24.70;1.40
1826;DHT22;912;48.130;11.348;2022-07-29T12:54:57;24.60;99.90
1826;DHT22;912;48.130;11.348;2022-07-29T12:57:45;24.60;99.90
1826;DHT22;912;48.130;11.348;2022-07-29T13:00:28;24.50;99.90
1826;DHT22;912;48.130;11.348;2022-07-29T13:03:12;24.30;99.90
1826;DHT22;912;48.130;11.348;2022-07-29T13:05:54;24.10;99.90
1826;DHT22;912;48.130;11.348;2022-07-29T13:08:35;24.00;99.90
1826;DHT22;912;48.130;11.348;2022-07-29T13:11:28;23.90;1.40
1826;DHT22;912;48.130;11.348;2022-07-29T13:14:09;23.70;1.40
1826;DHT22;912;48.130;11.348;2022-07-29T13:17:01;23.70;99.90
1826;DHT22;912;48.130;11.348;2022-07-29T13:19:49;23.80;1.40
1826;DHT22;912;48.130;11.348;2022-07-29T13:22:30;23.70;99.90
1826;DHT22;912;48.130;11.348;2022-07-29T13:25:12;23.70;99.90
1826;DHT22;912;48.130;11.348;2022-07-29T13:27:56;23.70;1.40
1826;DHT22;912;48.130;11.348;2022-07-29T13:30:39;23.80;99.90
1826;DHT22;912;48.130;11.348;2022-07-29T13:35:49;23.70;99.90
1826;DHT22;912;48.130;11.348;2022-07-29T13:38:31;23.80;1.40
1826;DHT22;912;48.130;11.348;2022-07-29T13:41:16;23.80;1.40
1826;DHT22;912;48.130;11.348;2022-07-29T13:43:57;23.90;1.40
1826;DHT22;912;48.130;11.348;2022-07-29T13:46:39;24.00;1.40
1826;DHT22;912;48.130;11.348;2022-07-29T13:49:21;24.10;1.40
1826;DHT22;912;48.130;11.348;2022-07-29T13:52:06;23.80;1.40
1826;DHT22;912;48.130;11.348;2022-07-29T13:54:47;23.80;99.90
1826;DHT22;912;48.130;11.348;2022-07-29T13:57:29;24.00;99.90
1826;DHT22;912;48.130;11.348;2022-07-29T14:00:12;24.10;1.40
1826;DHT22;912;48.130;11.348;2022-07-29T14:02:56;24.10;1.40
1826;DHT22;912;48.130;11.348;2022-07-29T14:05:38;23.90;1.40
1826;DHT22;912;48.130;11.348;2022-07-29T14:08:20;23.70;1.40
1826;DHT22;912;48.130;11.348;2022-07-29T14:11:01;23.60;1.40
1826;DHT22;912;48.130;11.348;2022-07-29T14:13:46;23.60;1.40
1826;DHT22;912;48.130;11.348;2022-07-29T14:16:28;23.60;1.40
1826;DHT22;912;48.130;11.348;2022-07-29T14:19:10;23.70;1.40
1826;DHT22;912;48.130;11.348;2022-07-29T14:21:51;23.90;1.40
1826;DHT22;912;48.130;11.348;2022-07-29T14:24:33;23.90;1.40
1826;DHT22;912;48.130;11.348;2022-07-29T14:27:15;24.20;1.40
1826;DHT22;912;48.130;11.348;2022-07-29T14:29:57;24.30;1.40
1826;DHT22;912;48.130;11.348;2022-07-29T14:32:38;24.20;1.40
1826;DHT22;912;48.130;11.348;2022-07-29T14:35:53;24.40;1.40
1826;DHT22;912;48.130;11.348;2022-07-29T14:38:35;24.60;1.40
1826;DHT22;912;48.130;11.348;2022-07-29T14:41:17;24.30;1.40
1826;DHT22;912;48.130;11.348;2022-07-29T14:44:01;24.40;1.40
1826;DHT22;912;48.130;11.348;2022-07-29T14:46:43;23.90;1.40
1826;DHT22;912;48.130;11.348;2022-07-29T14:49:26;23.80;1.40
1826;DHT22;912;48.130;11.348;2022-07-29T14:52:07;23.70;1.40
1826;DHT22;912;48.130;11.348;2022-07-29T14:54:48;23.60;1.40
1826;DHT22;912;48.130;11.348;2022-07-29T14:57:30;23.70;1.40
1826;DHT22;912;48.130;11.348;2022-07-29T15:00:12;23.60;1.40
1826;DHT22;912;48.130;11.348;2022-07-29T15:02:54;23.30;1.40
1826;DHT22;912;48.130;11.348;2022-07-29T15:05:36;23.20;1.40
1826;DHT22;912;48.130;11.348;2022-07-29T15:08:17;23.10;1.40
1826;DHT22;912;48.130;11.348;2022-07-29T15:10:59;23.10;1.40
1826;DHT22;912;48.130;11.348;2022-07-29T15:16:57;23.20;1.40
1826;DHT22;912;48.130;11.348;2022-07-29T15:19:39;23.10;1.40
1826;DHT22;912;48.130;11.348;2022-07-29T15:22:21;23.10;1.40
1826;DHT22;912;48.130;11.348;2022-07-29T15:25:04;23.00;1.40
1826;DHT22;912;48.130;11.348;2022-07-29T15:27:47;23.00;1.40
1826;DHT22;912;48.130;11.348;2022-07-29T15:30:29;23.20;1.40
1826;DHT22;912;48.130;11.348;2022-07-29T15:35:50;23.40;1.40
1826;DHT22;912;48.130;11.348;2022-07-29T15:38:32;23.30;1.40
1826;DHT22;912;48.130;11.348;2022-07-29T15:41:14;23.20;1.40
1826;DHT22;912;48.130;11.348;2022-07-29T15:43:56;23.20;1.40
1826;DHT22;912;48.130;11.348;2022-07-29T15:46:37;23.20;1.40
1826;DHT22;912;48.130;11.348;2022-07-29T15:49:25;23.10;1.40
1826;DHT22;912;48.130;11.348;2022-07-29T15:52:08;23.00;1.40
1826;DHT22;912;48.130;11.348;2022-07-29T15:54:52;23.00;1.40
1826;DHT22;912;48.130;11.348;2022-07-29T15:57:33;22.80;1.40
1826;DHT22;912;48.130;11.348;2022-07-29T16:02:52;22.60;1.40
1826;DHT22;912;48.130;11.348;2022-07-29T16:05:34;22.60;1.40
1826;DHT22;912;48.130;11.348;2022-07-29T16:08:18;22.50;1.40
1826;DHT22;912;48.130;11.348;2022-07-29T16:13:36;22.50;1.40
1826;DHT22;912;48.130;11.348;2022-07-29T16:16:18;22.50;1.40
1826;DHT22;912;48.130;11.348;2022-07-29T16:18:59;22.50;1.40
1826;DHT22;912;48.130;11.348;2022-07-29T16:21:41;22.40;1.40
1826;DHT22;912;48.130;11.348;2022-07-29T16:24:23;22.30;1.40
1826;DHT22;912;48.130;11.348;2022-07-29T16:27:07;22.20;1.40
1826;DHT22;912;48.130;11.348;2022-07-29T16:29:49;22.20;1.40
1826;DHT22;912;48.130;11.348;2022-07-29T16:32:30;22.10;1.40
1826;DHT22;912;48.130;11.348;2022-07-29T16:35:51;22.10;1.40
1826;DHT22;912;48.130;11.348;2022-07-29T16:38:32;22.00;1.40
1826;DHT22;912;48.130;11.348;2022-07-29T16:41:14;21.80;1.40
1826;DHT22;912;48.130;11.348;2022-07-29T16:43:55;21.30;1.40
1826;DHT22;912;48.130;11.348;2022-07-29T16:46:37;21.10;1.40
1826;DHT22;912;48.130;11.348;2022-07-29T16:49:19;21.10;1.40
1826;DHT22;912;48.130;11.348;2022-07-29T16:52:04;21.10;1.40
1826;DHT22;912;48.130;11.348;2022-07-29T16:54:46;21.00;1.40
1826;DHT22;912;48.130;11.348;2022-07-29T16:57:32;21.00;1.40
1826;DHT22;912;48.130;11.348;2022-07-29T17:00:15;20.90;1.40
1826;DHT22;912;48.130;11.348;2022-07-29T17:02:57;20.90;1.40
1826;DHT22;912;48.130;11.348;2022-07-29T17:05:40;20.80;1.40
1826;DHT22;912;48.130;11.348;2022-07-29T17:08:24;20.70;1.40
1826;DHT22;912;48.130;11.348;2022-07-29T17:11:06;20.60;1.40
1826;DHT22;912;48.130;11.348;2022-07-29T17:13:48;20.60;1.40
1826;DHT22;912;48.130;11.348;2022-07-29T17:16:33;20.70;1.40
1826;DHT22;912;48.130;11.348;2022-07-29T17:19:14;20.30;1.40
1826;DHT22;912;48.130;11.348;2022-07-29T17:21:56;19.80;1.40
1826;DHT22;912;48.130;11.348;2022-07-29T17:24:38;19.60;1.40
1826;DHT22;912;48.130;11.348;2022-07-29T17:27:43;19.10;1.40
1826;DHT22;912;48.130;11.348;2022-07-29T17:30:25;18.80;1.40
1826;DHT22;912;48.130;11.348;2022-07-29T17:35:49;18.50;1.40
1826;DHT22;912;48.130;11.348;2022-07-29T17:38:37;18.40;1.40
1826;DHT22;912;48.130;11.348;2022-07-29T17:41:19;18.40;1.40
1826;DHT22;912;48.130;11.348;2022-07-29T17:44:01;18.40;1.40
1826;DHT22;912;48.130;11.348;2022-07-29T17:46:43;18.40;1.40
1826;DHT22;912;48.130;11.348;2022-07-29T17:49:24;18.40;1.40
1826;DHT22;912;48.130;11.348;2022-07-29T17:52:06;18.20;1.40
1826;DHT22;912;48.130;11.348;2022-07-29T17:54:48;17.90;1.40
1826;DHT22;912;48.130;11.348;2022-07-29T17:57:30;17.10;1.40
1826;DHT22;912;48.130;11.348;2022-07-29T18:00:11;16.40;1.40
1826;DHT22;912;48.130;11.348;2022-07-29T18:03:31;16.10;1.40
1826;DHT22;912;48.130;11.348;2022-07-29T18:06:13;15.90;1.40
1826;DHT22;912;48.130;11.348;2022-07-29T18:08:54;15.90;1.40
1826;DHT22;912;48.130;11.348;2022-07-29T18:11:36;15.80;1.40
1826;DHT22;912;48.130;11.348;2022-07-29T18:14:18;15.70;1.40
1826;DHT22;912;48.130;11.348;2022-07-29T18:16:59;15.70;1.40
1826;DHT22;912;48.130;11.348;2022-07-29T18:19:41;15.70;1.40
1826;DHT22;912;48.130;11.348;2022-07-29T18:22:26;15.80;1.40
1826;DHT22;912;48.130;11.348;2022-07-29T18:25:08;15.80;1.40
1826;DHT22;912;48.130;11.348;2022-07-29T18:30:27;15.70;1.40
1826;DHT22;912;48.130;11.348;2022-07-29T18:35:50;15.70;1.40
1826;DHT22;912;48.130;11.348;2022-07-29T18:38:32;15.70;1.40
1826;DHT22;912;48.130;11.348;2022-07-29T18:41:16;15.70;1.40
1826;DHT22;912;48.130;11.348;2022-07-29T18:43:58;15.70;1.40
1826;DHT22;912;48.130;11.348;2022-07-29T18:46:43;15.80;1.40
1826;DHT22;912;48.130;11.348;2022-07-29T18:49:24;15.80;1.40
1826;DHT22;912;48.130;11.348;2022-07-29T18:52:06;15.80;1.40
1826;DHT22;912;48.130;11.348;2022-07-29T18:54:48;15.80;1.40
1826;DHT22;912;48.130;11.348;2022-07-29T18:57:33;15.90;1.40
1826;DHT22;912;48.130;11.348;2022-07-29T19:00:15;15.90;1.40
1826;DHT22;912;48.130;11.348;2022-07-29T19:02:56;15.90;1.40
1826;DHT22;912;48.130;11.348;2022-07-29T19:05:38;16.00;1.40
1826;DHT22;912;48.130;11.348;2022-07-29T19:08:20;16.00;1.40
1826;DHT22;912;48.130;11.348;2022-07-29T19:11:05;16.00;1.40
1826;DHT22;912;48.130;11.348;2022-07-29T19:13:46;16.00;1.40
1826;DHT22;912;48.130;11.348;2022-07-29T19:19:02;16.10;1.40
1826;DHT22;912;48.130;11.348;2022-07-29T19:21:47;16.10;1.40
1826;DHT22;912;48.130;11.348;2022-07-29T19:24:29;16.00;1.40
1826;DHT22;912;48.130;11.348;2022-07-29T19:27:10;16.10;1.40
1826;DHT22;912;48.130;11.348;2022-07-29T19:29:53;16.10;1.40
1826;DHT22;912;48.130;11.348;2022-07-29T19:32:35;16.10;1.40
1826;DHT22;912;48.130;11.348;2022-07-29T19:35:50;16.20;1.40
1826;DHT22;912;48.130;11.348;2022-07-29T19:38:32;16.20;1.40
1826;DHT22;912;48.130;11.348;2022-07-29T19:41:14;16.30;1.40
1826;DHT22;912;48.130;11.348;2022-07-29T19:43:56;16.30;1.40
1826;DHT22;912;48.130;11.348;2022-07-29T19:46:38;16.30;1.40
1826;DHT22;912;48.130;11.348;2022-07-29T19:49:23;16.40;1.40
1826;DHT22;912;48.130;11.348;2022-07-29T19:52:04;16.30;1.40
1826;DHT22;912;48.130;11.348;2022-07-29T19:54:49;16.00;1.40